KGOO

Details ICAO KGOO
Name NEVADA CO AIR PARK
Region United States
Timezone America/Los_Angeles (UTC-8.0)
Plans Departing 3
Arriving 4
Stats Elevation 3,152 ft / 961 m (AMSL)
Location 39.224036° -121.003088°
Runways 1
Magnetic Variation 13.582° E
Sunrise 2017-12-16 15:18:41 UTC / 2017-12-16 07:18:41 Local
Sunset 2017-12-17 00:43:42 UTC / 2017-12-16 16:43:42 Local
Advertisement - Login to hide

Runways

ID Width Length Bearing (true) Bearing (mag) Surface Threshold Offset Overrun Length
07 75 ft / 23 m 4,341 ft / 1,323 m 87.27° 73.69° Asphalt 0 ft / 0 m 0 ft / 0 m
25 75 ft / 23 m 4,341 ft / 1,323 m 267.28° 253.70° Asphalt 0 ft / 0 m 0 ft / 0 m

Map

Weather


0- 5 10 15 20 25 30 35+ Temperature / ° C

Clouds and Precipitation
Forecast for 2017-12-16 18:00 UTC. Updated 2 hours ago

Ground ~20,000 ft ~40,000 ft Winds

METAR

KGOO 161700Z AUTO 00000KT 10SM CLR 07/M06 A2997 RMK AO1

TAF

Not found

Frequencies

Recorded 121.32 MHz AWOS 3
Approach 125.40 MHz NORCAL APP/DEP
Unicom 122.72 MHz CTAF/UNICOM
Warning: Do not use this data for real-world aviation or navigation. No guarantee of current accuracy is given.